< < Back
Terminal Aerodrome Forecast


Current Version              Previous Versions:   1  2  3  4  5  6  7  8  9  

Terminal Aerodrome Forecast

073
FTUS42 KTAE 270500
TAFTLH
TAF
KTLH 270527Z 2706/2806 34005KT P6SM BKN250
     FM271600 02008KT P6SM BKN250=

Latest METAR

874
SAUS80 KWBC 280000 RRA
MTRTLH
METAR KTLH 272353Z 06008KT 10SM BKN160 BKN250 12/03 A3030 RMK AO2 SLP258
T01170033 10144 20117 53008 $


USA.gov is the U.S. government's official web portal to all federal, state and local government web resources and services.